• Join FlightAware (Why Join?)
  • Login
  • US Flag 
05:55AM EDT


 

Airport Tracker/Info


-or-


 

Live Flight TrackerFlight Track Log ✈ UAL5900 ✈ 2013年04月12日 ✈ KORD - KBNA

Flight Track Log - Related Links

Times and Time Zones

All times are in EDT time to prevent confusion due to time zone crossing. See the UAL5900 flight status page for this flight to view local times or setup timezone preferences in your user account.

Time Position Orientation Groundspeed Altitude Reporting Facility
EDT Latitude Longitude Course Direction KTS MPH feet Rate Location/Type
07:04PM 41.9339 -87.9100 170° South 188 216 2,400  Level Chicago Center
07:05PM 41.8681 -87.8947 170° South 199 229 4,600 1,980 Climbing Chicago Center
07:06PM 41.7975 -87.8861 175° South 231 266 6,600 1,860 Climbing Chicago Center
07:07PM 41.7239 -87.8853 180° South 261 300 8,500 2,040 Climbing Chicago Center
07:08PM 41.6461 -87.8836 179° South 275 316 10,900 2,040 Climbing Chicago Center
07:09PM 41.5686 -87.8650 170° South 285 328 12,800 1,380 Climbing Chicago Center
07:10PM 41.4850 -87.8286 162° South 310 357 13,800 780 Climbing Chicago Center
07:11PM 41.3917 -87.7894 163° South 342 394 14,500 960 Climbing Chicago Center
07:12PM 41.2700 -87.7703 173° South 364 419 15,900 1,200 Climbing Chicago Center
07:13PM 41.1689 -87.7572 174° South 364 419 17,000 1,140 Climbing Chicago Center
07:14PM 41.0647 -87.7422 174° South 371 427 18,300 1,140 Climbing Chicago Center
07:15PM 40.9589 -87.7281 174° South 380 437 19,400 960 Climbing Chicago Center
07:16PM 40.8511 -87.7117 173° South 387 445 20,400 960 Climbing Chicago Center
07:17PM 40.7417 -87.6967 174° South 394 453 21,400 1,080 Climbing Chicago Center
07:18PM 40.6094 -87.6797 174° South 399 459 22,700 1,260 Climbing Chicago Center
07:19PM 40.5000 -87.6653 174° South 397 457 24,100 1,320 Climbing Chicago Center
07:20PM 40.3944 -87.6508 174° South 386 444 25,500 1,320 Climbing Chicago Center
07:21PM 40.2894 -87.6367 174° South 381 438 26,900 1,260 Climbing Chicago Center
07:23PM 40.1867 -87.6222 174° South 373 429 28,200 960 Climbing Chicago Center
07:24PM 40.0858 -87.6083 174° South 368 423 29,000 360 Climbing Chicago Center
07:25PM 39.9542 -87.5897 174° South 396 456 29,000  Level Chicago Center
07:26PM 39.8456 -87.5761 175° South 418 481 29,000  Level Chicago Center
07:27PM 39.7236 -87.5606 174° South 435 501 29,000  Level Chicago Center
07:28PM 39.5947 -87.5419 174° South 442 509 29,000  Level Chicago Center
07:29PM 39.4756 -87.4856 160° South 459 528 29,000  Level Chicago Center
07:30PM 39.3314 -87.4528 170° South 451 519 29,000  Level Chicago Center
07:31PM 39.2081 -87.4406 176° South 445 512 29,000  Level Chicago Center
07:32PM 39.1025 -87.4244 173° South 439 505 29,000  Level Chicago Center
07:33PM 38.9392 -87.4133 177° South 442 509 29,000  Level Indianapolis Center
07:34PM 38.8167 -87.4011 176° South 440 506 29,000  Level Indianapolis Center
07:35PM 38.6953 -87.3886 175° South 439 505 29,000  Level Indianapolis Center
07:36PM 38.5511 -87.3750 176° South 435 501 29,000  Level Indianapolis Center
07:37PM 38.4308 -87.3617 175° South 434 499 29,000  Level Indianapolis Center
07:38PM 38.3119 -87.3503 176° South 434 499 29,000  Level Indianapolis Center
07:39PM 38.1933 -87.3400 176° South 433 498 29,000  Level Indianapolis Center
07:40PM 38.0744 -87.3278 175° South 431 496 29,000  Level Indianapolis Center
07:41PM 37.9544 -87.3144 175° South 434 499 29,000  Level Indianapolis Center
07:42PM 37.8119 -87.3014 176° South 428 493 29,000 -240 Level Indianapolis Center
07:43PM 37.7019 -87.2919 176° South 423 487 28,600 -1,260 Descending Indianapolis Center
07:44PM 37.5836 -87.2797 175° South 423 487 26,400 -2,220 Descending Indianapolis Center
07:45PM 37.5247 -87.2742 176° South 426 490 25,300 -2,280 Descending Memphis Center
07:46PM 37.4078 -87.2631 176° South 426 490 23,100 -2,220 Descending Memphis Center
07:47PM 37.2950 -87.2439 172° South 428 493 21,300 -1,080 Descending Memphis Center
07:48PM 37.1647 -87.1994 165° South 426 490 21,000 -480 Descending Memphis Center
07:49PM 37.0597 -87.1750 169° South 414 476 20,300 -1,620 Descending Memphis Center
07:50PM 36.9422 -87.1383 166° South 416 479 17,900 -2,340 Descending Memphis Center
07:51PM 36.8308 -87.1039 166° South 411 473 15,600 -2,220 Descending Memphis Center
07:52PM 36.7292 -87.0458 155° Southeast 411 473 13,500 -2,100 Descending Memphis Center
07:53PM 36.6297 -86.9853 154° Southeast 402 463 11,500 -1,560 Descending Memphis Center
07:54PM 36.5464 -86.9139 145° Southeast 376 433 10,400 -1,320 Descending Memphis Center
07:55PM 36.4836 -86.8339 134° Southeast 334 384 8,900 -1,500 Descending Memphis Center
07:56PM 36.4297 -86.7667 135° Southeast 322 371 7,400 -1,620 Descending Memphis Center
07:57PM 36.3733 -86.6969 135° Southeast 295 339 5,700 -1,680 Descending Memphis Center
07:58PM 36.3114 -86.6406 144° Southeast 272 313 4,100 -1,380 Descending Memphis Center
07:59PM 36.2486 -86.6306 173° South 228 262 3,000 -1,140 Descending Memphis Center
08:00PM 36.1992 -86.6533 200° South 207 238 1,900 -960 Descending Memphis Center
08:01PM 36.1622 -86.6706 201° Southwest 163 188 1,200 -600 Descending Memphis Center
08:02PM 36.1208 -86.6853 196° South 151 174 800 -420 Descending Memphis Center
08:04PM 36.1245 -86.6782 202° Southwest  Level Estimated
08:11PM 36.1245 -86.6782 90° East  Level Estimated
08:12PM 36.1245 -86.6782 90° East  Level Estimated
08:13PM 36.1245 -86.6782 90° East  Level Estimated
08:14PM 36.1245 -86.6782 90° East  Level Estimated
08:15PM 36.1245 -86.6782 90° East  Level Estimated
08:16PM 36.1245 -86.6782 90° East  Level Estimated
08:17PM 36.1245 -86.6782 90° East  Level Estimated
08:18PM 36.1245 -86.6782 90° East  Level Estimated
08:19PM 36.1245 -86.6782 90° East  Level Estimated
08:20PM 36.1245 -86.6782 90° East  Level Estimated
08:21PM 36.1245 -86.6782 90° East  Level Estimated
08:22PM 36.1245 -86.6782 90° East  Level Estimated
08:23PM 36.1245 -86.6782 90° East  Level Estimated